sensor_id;sensor_type;location;lat;lon;timestamp;pressure;altitude;pressure_sealevel;temperature;humidity
63033;BME280;49121;38.932;-9.018;2022-07-23T00:00:48;101533.19;;;19.56;74.88
63033;BME280;49121;38.932;-9.018;2022-07-23T00:02:48;101539.28;;;19.59;74.92
63033;BME280;49121;38.932;-9.018;2022-07-23T00:04:49;101542.00;;;19.58;75.00
63033;BME280;49121;38.932;-9.018;2022-07-23T00:06:53;101521.16;;;19.44;75.00
63033;BME280;49121;38.932;-9.018;2022-07-23T00:08:54;101531.75;;;19.71;74.46
63033;BME280;49121;38.932;-9.018;2022-07-23T00:10:55;101526.97;;;19.79;74.48
63033;BME280;49121;38.932;-9.018;2022-07-23T00:12:56;101520.19;;;19.70;74.40
63033;BME280;49121;38.932;-9.018;2022-07-23T00:14:58;101532.78;;;19.67;74.71
63033;BME280;49121;38.932;-9.018;2022-07-23T00:16:59;101527.38;;;19.68;74.90
63033;BME280;49121;38.932;-9.018;2022-07-23T00:19:18;101525.09;;;19.57;75.02
63033;BME280;49121;38.932;-9.018;2022-07-23T00:23:41;101528.13;;;19.48;75.47
63033;BME280;49121;38.932;-9.018;2022-07-23T00:25:42;101528.19;;;19.47;75.93
63033;BME280;49121;38.932;-9.018;2022-07-23T00:27:44;101523.81;;;19.44;76.01
63033;BME280;49121;38.932;-9.018;2022-07-23T00:29:45;101530.91;;;19.45;76.34
63033;BME280;49121;38.932;-9.018;2022-07-23T00:31:46;101514.13;;;19.41;75.90
63033;BME280;49121;38.932;-9.018;2022-07-23T00:33:47;101528.81;;;19.53;75.67
63033;BME280;49121;38.932;-9.018;2022-07-23T00:35:48;101531.66;;;19.49;75.75
63033;BME280;49121;38.932;-9.018;2022-07-23T00:38:07;101538.03;;;19.45;76.26
63033;BME280;49121;38.932;-9.018;2022-07-23T00:40:29;101536.13;;;19.48;76.19
63033;BME280;49121;38.932;-9.018;2022-07-23T00:42:31;101536.00;;;19.51;76.09
63033;BME280;49121;38.932;-9.018;2022-07-23T00:44:50;101517.63;;;19.44;76.12
63033;BME280;49121;38.932;-9.018;2022-07-23T00:46:58;101505.50;;;19.35;76.19
63033;BME280;49121;38.932;-9.018;2022-07-23T00:48:59;101526.53;;;19.42;76.75
63033;BME280;49121;38.932;-9.018;2022-07-23T00:51:05;101525.72;;;19.40;76.61
63033;BME280;49121;38.932;-9.018;2022-07-23T00:53:05;101502.28;;;19.25;76.73
63033;BME280;49121;38.932;-9.018;2022-07-23T00:55:08;101526.84;;;19.35;76.75
63033;BME280;49121;38.932;-9.018;2022-07-23T00:57:09;101518.94;;;19.32;77.04
63033;BME280;49121;38.932;-9.018;2022-07-23T01:01:31;101510.59;;;19.41;76.96
63033;BME280;49121;38.932;-9.018;2022-07-23T01:03:31;101510.13;;;19.53;76.34
63033;BME280;49121;38.932;-9.018;2022-07-23T01:05:33;101472.50;;;19.36;76.48
63033;BME280;49121;38.932;-9.018;2022-07-23T01:07:34;101505.50;;;19.58;76.40
63033;BME280;49121;38.932;-9.018;2022-07-23T01:09:35;101516.28;;;19.55;76.36
63033;BME280;49121;38.932;-9.018;2022-07-23T01:11:37;101513.59;;;19.55;76.58
63033;BME280;49121;38.932;-9.018;2022-07-23T01:13:51;101498.22;;;19.62;76.22
63033;BME280;49121;38.932;-9.018;2022-07-23T01:15:58;101499.53;;;19.52;76.23
63033;BME280;49121;38.932;-9.018;2022-07-23T01:17:59;101510.34;;;19.47;77.09
63033;BME280;49121;38.932;-9.018;2022-07-23T01:20:00;101501.06;;;19.57;76.74
63033;BME280;49121;38.932;-9.018;2022-07-23T01:22:03;101500.56;;;19.48;77.04
63033;BME280;49121;38.932;-9.018;2022-07-23T01:24:04;101500.66;;;19.45;77.13
63033;BME280;49121;38.932;-9.018;2022-07-23T01:26:07;101490.38;;;19.34;77.54
63033;BME280;49121;38.932;-9.018;2022-07-23T01:28:09;101493.13;;;19.32;77.87
63033;BME280;49121;38.932;-9.018;2022-07-23T01:30:16;101497.34;;;19.38;77.74
63033;BME280;49121;38.932;-9.018;2022-07-23T01:32:18;101494.09;;;19.30;78.04
63033;BME280;49121;38.932;-9.018;2022-07-23T01:34:20;101502.19;;;19.28;78.26
63033;BME280;49121;38.932;-9.018;2022-07-23T01:36:21;101504.53;;;19.36;78.18
63033;BME280;49121;38.932;-9.018;2022-07-23T01:38:22;101495.53;;;19.38;77.90
63033;BME280;49121;38.932;-9.018;2022-07-23T01:40:25;101497.13;;;19.44;77.39
63033;BME280;49121;38.932;-9.018;2022-07-23T01:42:27;101501.44;;;19.48;77.13
63033;BME280;49121;38.932;-9.018;2022-07-23T01:50:06;101490.78;;;19.47;77.13
63033;BME280;49121;38.932;-9.018;2022-07-23T01:55:36;101490.22;;;19.38;77.54
63033;BME280;49121;38.932;-9.018;2022-07-23T01:57:38;101478.56;;;19.41;77.61
63033;BME280;49121;38.932;-9.018;2022-07-23T01:59:40;101487.25;;;19.46;77.33
63033;BME280;49121;38.932;-9.018;2022-07-23T02:01:52;101486.69;;;19.38;77.50
63033;BME280;49121;38.932;-9.018;2022-07-23T02:03:52;101486.00;;;19.33;77.69
63033;BME280;49121;38.932;-9.018;2022-07-23T02:05:53;101491.50;;;19.28;78.04
63033;BME280;49121;38.932;-9.018;2022-07-23T02:07:54;101488.72;;;19.31;77.74
63033;BME280;49121;38.932;-9.018;2022-07-23T02:09:55;101484.53;;;19.48;77.09
63033;BME280;49121;38.932;-9.018;2022-07-23T02:11:56;101480.00;;;19.50;76.80
63033;BME280;49121;38.932;-9.018;2022-07-23T02:13:57;101485.19;;;19.54;76.46
63033;BME280;49121;38.932;-9.018;2022-07-23T02:15:58;101486.03;;;19.55;76.48
63033;BME280;49121;38.932;-9.018;2022-07-23T02:17:58;101485.41;;;19.48;76.75
63033;BME280;49121;38.932;-9.018;2022-07-23T02:23:33;101486.50;;;19.42;76.95
63033;BME280;49121;38.932;-9.018;2022-07-23T02:25:53;101484.00;;;19.38;77.12
63033;BME280;49121;38.932;-9.018;2022-07-23T02:33:30;101480.66;;;19.08;78.41
63033;BME280;49121;38.932;-9.018;2022-07-23T02:35:50;101479.09;;;19.02;78.35
63033;BME280;49121;38.932;-9.018;2022-07-23T02:38:09;101477.53;;;18.96;78.47
63033;BME280;49121;38.932;-9.018;2022-07-23T02:40:10;101485.47;;;18.98;78.89
63033;BME280;49121;38.932;-9.018;2022-07-23T02:42:14;101482.91;;;18.95;78.98
63033;BME280;49121;38.932;-9.018;2022-07-23T02:44:16;101490.53;;;19.06;78.49
63033;BME280;49121;38.932;-9.018;2022-07-23T02:46:21;101477.44;;;18.98;78.94
63033;BME280;49121;38.932;-9.018;2022-07-23T02:48:22;101484.75;;;18.93;78.88
63033;BME280;49121;38.932;-9.018;2022-07-23T02:50:41;101472.13;;;18.98;78.69
63033;BME280;49121;38.932;-9.018;2022-07-23T02:53:00;101474.69;;;19.01;78.57
63033;BME280;49121;38.932;-9.018;2022-07-23T02:55:01;101481.31;;;18.89;78.73
63033;BME280;49121;38.932;-9.018;2022-07-23T02:57:03;101474.59;;;18.77;79.14
63033;BME280;49121;38.932;-9.018;2022-07-23T02:59:03;101468.06;;;18.61;79.73
63033;BME280;49121;38.932;-9.018;2022-07-23T03:01:05;101483.22;;;18.59;79.98
63033;BME280;49121;38.932;-9.018;2022-07-23T03:03:07;101489.50;;;18.58;80.03
63033;BME280;49121;38.932;-9.018;2022-07-23T03:05:09;101482.16;;;18.65;79.73
63033;BME280;49121;38.932;-9.018;2022-07-23T03:07:12;101478.63;;;18.64;79.49
63033;BME280;49121;38.932;-9.018;2022-07-23T03:09:14;101475.16;;;18.62;79.72
63033;BME280;49121;38.932;-9.018;2022-07-23T03:11:16;101463.66;;;18.60;79.37
63033;BME280;49121;38.932;-9.018;2022-07-23T03:13:17;101482.00;;;18.69;79.52
63033;BME280;49121;38.932;-9.018;2022-07-23T03:15:18;101487.94;;;18.79;79.54
63033;BME280;49121;38.932;-9.018;2022-07-23T03:17:19;101478.53;;;18.94;78.75
63033;BME280;49121;38.932;-9.018;2022-07-23T03:19:21;101481.63;;;19.07;78.33
63033;BME280;49121;38.932;-9.018;2022-07-23T03:21:22;101473.47;;;19.10;78.01
63033;BME280;49121;38.932;-9.018;2022-07-23T03:23:26;101484.28;;;19.07;78.25
63033;BME280;49121;38.932;-9.018;2022-07-23T03:25:26;101473.81;;;19.00;78.01
63033;BME280;49121;38.932;-9.018;2022-07-23T03:27:30;101473.91;;;18.97;78.09
63033;BME280;49121;38.932;-9.018;2022-07-23T03:29:31;101472.03;;;18.74;78.47
63033;BME280;49121;38.932;-9.018;2022-07-23T03:31:33;101477.00;;;18.60;79.29
63033;BME280;49121;38.932;-9.018;2022-07-23T03:33:34;101468.38;;;18.52;79.59
63033;BME280;49121;38.932;-9.018;2022-07-23T03:35:35;101458.13;;;18.39;80.07
63033;BME280;49121;38.932;-9.018;2022-07-23T03:37:54;101462.56;;;18.41;80.39
63033;BME280;49121;38.932;-9.018;2022-07-23T03:40:02;101461.59;;;18.42;80.73
63033;BME280;49121;38.932;-9.018;2022-07-23T03:42:04;101461.00;;;18.60;80.08
63033;BME280;49121;38.932;-9.018;2022-07-23T03:44:06;101455.69;;;18.58;79.69
63033;BME280;49121;38.932;-9.018;2022-07-23T03:46:07;101456.53;;;18.60;79.61
63033;BME280;49121;38.932;-9.018;2022-07-23T03:48:08;101464.16;;;18.71;79.03
63033;BME280;49121;38.932;-9.018;2022-07-23T03:50:10;101457.38;;;18.61;79.18
63033;BME280;49121;38.932;-9.018;2022-07-23T03:52:11;101464.47;;;18.62;79.40
63033;BME280;49121;38.932;-9.018;2022-07-23T03:54:12;101435.03;;;18.65;78.98
63033;BME280;49121;38.932;-9.018;2022-07-23T03:56:13;101451.25;;;18.86;78.29
63033;BME280;49121;38.932;-9.018;2022-07-23T03:58:13;101458.34;;;18.85;78.52
63033;BME280;49121;38.932;-9.018;2022-07-23T04:00:14;101450.25;;;18.88;78.11
63033;BME280;49121;38.932;-9.018;2022-07-23T04:02:16;101442.25;;;18.88;77.74
63033;BME280;49121;38.932;-9.018;2022-07-23T04:04:17;101443.84;;;18.94;77.60
63033;BME280;49121;38.932;-9.018;2022-07-23T04:06:19;101438.41;;;18.95;77.29
63033;BME280;49121;38.932;-9.018;2022-07-23T04:08:20;101444.41;;;19.02;77.18
63033;BME280;49121;38.932;-9.018;2022-07-23T04:10:25;101449.63;;;19.05;77.05
63033;BME280;49121;38.932;-9.018;2022-07-23T04:12:26;101428.63;;;18.96;76.75
63033;BME280;49121;38.932;-9.018;2022-07-23T04:14:28;101433.84;;;18.99;76.77
63033;BME280;49121;38.932;-9.018;2022-07-23T04:16:30;101445.28;;;19.03;76.73
63033;BME280;49121;38.932;-9.018;2022-07-23T04:18:32;101446.31;;;18.98;76.83
63033;BME280;49121;38.932;-9.018;2022-07-23T04:20:51;101444.91;;;18.88;77.09
63033;BME280;49121;38.932;-9.018;2022-07-23T04:25:34;101448.28;;;18.93;76.57
63033;BME280;49121;38.932;-9.018;2022-07-23T04:27:35;101442.88;;;18.95;76.48
63033;BME280;49121;38.932;-9.018;2022-07-23T04:29:36;101449.09;;;18.95;76.24
63033;BME280;49121;38.932;-9.018;2022-07-23T04:31:37;101446.19;;;19.02;76.26
63033;BME280;49121;38.932;-9.018;2022-07-23T04:33:38;101450.63;;;19.03;75.99
63033;BME280;49121;38.932;-9.018;2022-07-23T04:35:40;101451.03;;;18.92;76.14
63033;BME280;49121;38.932;-9.018;2022-07-23T04:37:49;101445.56;;;18.95;76.41
63033;BME280;49121;38.932;-9.018;2022-07-23T04:39:52;101441.22;;;18.92;76.54
63033;BME280;49121;38.932;-9.018;2022-07-23T04:41:53;101441.97;;;18.96;76.56
63033;BME280;49121;38.932;-9.018;2022-07-23T04:43:53;101441.84;;;18.99;76.51
63033;BME280;49121;38.932;-9.018;2022-07-23T04:45:55;101440.91;;;19.00;76.72
63033;BME280;49121;38.932;-9.018;2022-07-23T04:48:01;101446.03;;;19.06;76.42
63033;BME280;49121;38.932;-9.018;2022-07-23T04:50:07;101450.06;;;18.93;77.00
63033;BME280;49121;38.932;-9.018;2022-07-23T04:57:50;101451.88;;;18.92;77.08
63033;BME280;49121;38.932;-9.018;2022-07-23T04:59:51;101458.94;;;18.93;77.08
63033;BME280;49121;38.932;-9.018;2022-07-23T05:01:52;101451.13;;;18.89;77.28
63033;BME280;49121;38.932;-9.018;2022-07-23T05:06:33;101447.84;;;18.80;77.82
63033;BME280;49121;38.932;-9.018;2022-07-23T05:08:33;101435.84;;;18.67;77.79
63033;BME280;49121;38.932;-9.018;2022-07-23T05:10:53;101458.03;;;18.68;78.32
63033;BME280;49121;38.932;-9.018;2022-07-23T05:13:14;101452.41;;;18.77;78.07
63033;BME280;49121;38.932;-9.018;2022-07-23T05:15:17;101455.03;;;18.78;77.76
63033;BME280;49121;38.932;-9.018;2022-07-23T05:17:18;101449.78;;;18.75;77.84
63033;BME280;49121;38.932;-9.018;2022-07-23T05:19:20;101444.72;;;18.68;78.11
63033;BME280;49121;38.932;-9.018;2022-07-23T05:21:39;101447.72;;;18.58;78.23
63033;BME280;49121;38.932;-9.018;2022-07-23T05:23:40;101447.03;;;18.52;78.27
63033;BME280;49121;38.932;-9.018;2022-07-23T05:25:45;101448.06;;;18.48;78.84
63033;BME280;49121;38.932;-9.018;2022-07-23T05:27:46;101432.69;;;18.56;78.22
63033;BME280;49121;38.932;-9.018;2022-07-23T05:29:47;101434.94;;;18.68;77.50
63033;BME280;49121;38.932;-9.018;2022-07-23T05:34:11;101453.78;;;18.89;76.46
63033;BME280;49121;38.932;-9.018;2022-07-23T05:36:14;101442.00;;;18.69;77.06
63033;BME280;49121;38.932;-9.018;2022-07-23T05:38:25;101449.50;;;18.58;77.46
63033;BME280;49121;38.932;-9.018;2022-07-23T05:40:44;101464.78;;;18.53;78.02
63033;BME280;49121;38.932;-9.018;2022-07-23T05:43:03;101456.59;;;18.32;78.42
63033;BME280;49121;38.932;-9.018;2022-07-23T05:45:06;101459.50;;;18.25;78.82
63033;BME280;49121;38.932;-9.018;2022-07-23T05:47:09;101460.28;;;18.28;78.91
63033;BME280;49121;38.932;-9.018;2022-07-23T05:52:14;101465.56;;;18.30;79.14
63033;BME280;49121;38.932;-9.018;2022-07-23T05:54:35;101469.41;;;18.48;78.64
63033;BME280;49121;38.932;-9.018;2022-07-23T05:56:36;101458.13;;;18.39;78.72
63033;BME280;49121;38.932;-9.018;2022-07-23T05:58:59;101459.69;;;18.47;78.47
63033;BME280;49121;38.932;-9.018;2022-07-23T06:01:00;101476.13;;;18.59;78.28
63033;BME280;49121;38.932;-9.018;2022-07-23T06:03:05;101468.91;;;18.62;77.63
63033;BME280;49121;38.932;-9.018;2022-07-23T06:05:08;101478.63;;;18.64;77.81
63033;BME280;49121;38.932;-9.018;2022-07-23T06:07:27;101476.13;;;18.59;77.61
63033;BME280;49121;38.932;-9.018;2022-07-23T06:09:28;101490.94;;;18.68;77.58
63033;BME280;49121;38.932;-9.018;2022-07-23T06:11:29;101489.31;;;18.64;77.70
63033;BME280;49121;38.932;-9.018;2022-07-23T06:13:31;101493.69;;;18.65;77.84
63033;BME280;49121;38.932;-9.018;2022-07-23T06:15:33;101497.22;;;18.66;77.97
63033;BME280;49121;38.932;-9.018;2022-07-23T06:17:36;101480.41;;;18.64;77.97
63033;BME280;49121;38.932;-9.018;2022-07-23T06:19:40;101497.69;;;18.78;77.69
63033;BME280;49121;38.932;-9.018;2022-07-23T06:22:05;101492.16;;;18.85;77.41
63033;BME280;49121;38.932;-9.018;2022-07-23T06:24:06;101494.66;;;18.89;77.07
63033;BME280;49121;38.932;-9.018;2022-07-23T06:26:07;101493.38;;;19.01;77.01
63033;BME280;49121;38.932;-9.018;2022-07-23T06:28:08;101506.19;;;19.15;76.24
63033;BME280;49121;38.932;-9.018;2022-07-23T06:30:09;101504.19;;;19.21;75.86
63033;BME280;49121;38.932;-9.018;2022-07-23T06:32:12;101481.16;;;19.19;75.18
63033;BME280;49121;38.932;-9.018;2022-07-23T06:34:12;101500.38;;;19.52;74.53
63033;BME280;49121;38.932;-9.018;2022-07-23T06:36:13;101511.31;;;20.37;74.36
63033;BME280;49121;38.932;-9.018;2022-07-23T06:38:20;101513.13;;;21.98;70.51
63033;BME280;49121;38.932;-9.018;2022-07-23T06:40:22;101507.25;;;23.81;66.17
63033;BME280;49121;38.932;-9.018;2022-07-23T06:42:23;101514.38;;;25.21;59.13
63033;BME280;49121;38.932;-9.018;2022-07-23T06:44:31;101511.25;;;26.53;55.68
63033;BME280;49121;38.932;-9.018;2022-07-23T06:46:33;101509.28;;;27.59;52.79
63033;BME280;49121;38.932;-9.018;2022-07-23T06:48:34;101518.91;;;28.13;51.08
63033;BME280;49121;38.932;-9.018;2022-07-23T06:50:37;101517.94;;;28.62;49.46
63033;BME280;49121;38.932;-9.018;2022-07-23T06:52:56;101538.19;;;28.81;47.10
63033;BME280;49121;38.932;-9.018;2022-07-23T06:55:15;101532.16;;;28.29;48.39
63033;BME280;49121;38.932;-9.018;2022-07-23T06:57:19;101530.59;;;28.62;48.28
63033;BME280;49121;38.932;-9.018;2022-07-23T06:59:20;101536.53;;;28.67;47.87
63033;BME280;49121;38.932;-9.018;2022-07-23T07:01:21;101539.94;;;29.73;46.48
63033;BME280;49121;38.932;-9.018;2022-07-23T07:03:22;101539.38;;;30.13;43.88
63033;BME280;49121;38.932;-9.018;2022-07-23T07:05:27;101531.94;;;30.27;43.52
63033;BME280;49121;38.932;-9.018;2022-07-23T07:10:07;101543.88;;;31.73;40.75
63033;BME280;49121;38.932;-9.018;2022-07-23T07:12:08;101547.38;;;31.33;40.53
63033;BME280;49121;38.932;-9.018;2022-07-23T07:14:09;101540.72;;;30.63;42.22
63033;BME280;49121;38.932;-9.018;2022-07-23T07:16:10;101543.09;;;31.09;41.55
63033;BME280;49121;38.932;-9.018;2022-07-23T07:18:10;101544.22;;;31.58;40.49
63033;BME280;49121;38.932;-9.018;2022-07-23T07:20:14;101546.59;;;31.21;40.59
63033;BME280;49121;38.932;-9.018;2022-07-23T07:22:33;101550.25;;;31.62;39.97
63033;BME280;49121;38.932;-9.018;2022-07-23T07:25:11;101549.16;;;30.48;41.49
63033;BME280;49121;38.932;-9.018;2022-07-23T07:29:31;101544.06;;;30.11;43.47
63033;BME280;49121;38.932;-9.018;2022-07-23T07:31:32;101539.16;;;30.16;42.47
63033;BME280;49121;38.932;-9.018;2022-07-23T07:33:34;101554.22;;;29.98;42.95
63033;BME280;49121;38.932;-9.018;2022-07-23T07:35:53;101551.84;;;29.14;44.36
63033;BME280;49121;38.932;-9.018;2022-07-23T07:38:13;101553.19;;;28.73;45.99
63033;BME280;49121;38.932;-9.018;2022-07-23T07:40:32;101553.75;;;28.66;46.19
63033;BME280;49121;38.932;-9.018;2022-07-23T07:42:53;101565.19;;;29.29;45.01
63033;BME280;49121;38.932;-9.018;2022-07-23T07:44:54;101559.44;;;29.79;44.37
63033;BME280;49121;38.932;-9.018;2022-07-23T07:46:55;101573.38;;;29.85;43.74
63033;BME280;49121;38.932;-9.018;2022-07-23T07:48:55;101552.28;;;29.89;42.87
63033;BME280;49121;38.932;-9.018;2022-07-23T07:50:58;101572.88;;;30.78;41.99
63033;BME280;49121;38.932;-9.018;2022-07-23T07:52:58;101580.47;;;31.38;40.27
63033;BME280;49121;38.932;-9.018;2022-07-23T07:54:59;101579.31;;;31.62;39.73
63033;BME280;49121;38.932;-9.018;2022-07-23T07:57:00;101579.81;;;31.25;40.12
63033;BME280;49121;38.932;-9.018;2022-07-23T07:59:00;101578.09;;;30.49;42.08
63033;BME280;49121;38.932;-9.018;2022-07-23T08:01:02;101578.66;;;30.96;41.14
63033;BME280;49121;38.932;-9.018;2022-07-23T08:03:05;101573.25;;;31.48;40.23
63033;BME280;49121;38.932;-9.018;2022-07-23T08:05:10;101582.28;;;30.53;41.28
63033;BME280;49121;38.932;-9.018;2022-07-23T08:07:11;101575.31;;;30.61;41.60
63033;BME280;49121;38.932;-9.018;2022-07-23T08:09:11;101589.59;;;31.48;40.00
63033;BME280;49121;38.932;-9.018;2022-07-23T08:11:13;101581.00;;;31.84;39.15
63033;BME280;49121;38.932;-9.018;2022-07-23T08:13:15;101585.91;;;32.40;37.90
63033;BME280;49121;38.932;-9.018;2022-07-23T08:15:18;101588.38;;;32.92;37.04
63033;BME280;49121;38.932;-9.018;2022-07-23T08:17:18;101593.59;;;33.62;35.31
63033;BME280;49121;38.932;-9.018;2022-07-23T08:19:19;101585.03;;;34.12;34.36
63033;BME280;49121;38.932;-9.018;2022-07-23T08:21:20;101581.94;;;34.25;33.68
63033;BME280;49121;38.932;-9.018;2022-07-23T08:23:20;101576.88;;;34.66;33.42
63033;BME280;49121;38.932;-9.018;2022-07-23T08:25:25;101570.97;;;34.96;32.45
63033;BME280;49121;38.932;-9.018;2022-07-23T08:27:26;101573.19;;;34.39;33.68
63033;BME280;49121;38.932;-9.018;2022-07-23T08:29:27;101576.22;;;34.08;34.28
63033;BME280;49121;38.932;-9.018;2022-07-23T08:31:28;101577.34;;;34.43;33.75
63033;BME280;49121;38.932;-9.018;2022-07-23T08:33:29;101579.03;;;34.26;33.95
63033;BME280;49121;38.932;-9.018;2022-07-23T08:35:34;101577.97;;;34.37;33.53
63033;BME280;49121;38.932;-9.018;2022-07-23T08:37:35;101576.31;;;34.26;33.99
63033;BME280;49121;38.932;-9.018;2022-07-23T08:39:36;101561.09;;;33.96;31.86
63033;BME280;49121;38.932;-9.018;2022-07-23T08:41:39;101572.03;;;35.48;29.76
63033;BME280;49121;38.932;-9.018;2022-07-23T08:43:40;101560.28;;;34.49;30.25
63033;BME280;49121;38.932;-9.018;2022-07-23T08:45:51;101571.81;;;36.01;27.61
63033;BME280;49121;38.932;-9.018;2022-07-23T08:47:54;101576.59;;;35.13;29.26
63033;BME280;49121;38.932;-9.018;2022-07-23T08:49:58;101564.78;;;34.86;29.45
63033;BME280;49121;38.932;-9.018;2022-07-23T08:52:00;101567.47;;;35.82;27.84
63033;BME280;49121;38.932;-9.018;2022-07-23T08:54:01;101576.19;;;34.81;29.81
63033;BME280;49121;38.932;-9.018;2022-07-23T08:56:03;101578.50;;;35.65;27.89
63033;BME280;49121;38.932;-9.018;2022-07-23T08:58:04;101563.66;;;36.26;27.24
63033;BME280;49121;38.932;-9.018;2022-07-23T09:00:05;101560.88;;;35.67;27.70
63033;BME280;49121;38.932;-9.018;2022-07-23T09:02:07;101580.03;;;36.01;27.01
63033;BME280;49121;38.932;-9.018;2022-07-23T09:04:08;101576.91;;;35.62;27.23
63033;BME280;49121;38.932;-9.018;2022-07-23T09:06:08;101579.66;;;35.96;27.34
63033;BME280;49121;38.932;-9.018;2022-07-23T09:08:15;101583.72;;;36.35;26.86
63033;BME280;49121;38.932;-9.018;2022-07-23T09:10:16;101576.69;;;35.81;27.70
63033;BME280;49121;38.932;-9.018;2022-07-23T09:12:16;101574.31;;;35.87;27.83
63033;BME280;49121;38.932;-9.018;2022-07-23T09:14:38;101582.25;;;36.90;26.27
63033;BME280;49121;38.932;-9.018;2022-07-23T09:16:40;101561.47;;;36.38;27.04
63033;BME280;49121;38.932;-9.018;2022-07-23T09:18:46;101571.75;;;36.52;26.87
63033;BME280;49121;38.932;-9.018;2022-07-23T09:20:47;101560.75;;;35.77;27.46
63033;BME280;49121;38.932;-9.018;2022-07-23T09:22:48;101574.13;;;36.39;27.74
63033;BME280;49121;38.932;-9.018;2022-07-23T09:25:15;101577.28;;;37.18;26.09
63033;BME280;49121;38.932;-9.018;2022-07-23T09:27:17;101576.22;;;36.45;27.18
63033;BME280;49121;38.932;-9.018;2022-07-23T09:29:36;101574.88;;;36.07;27.83
63033;BME280;49121;38.932;-9.018;2022-07-23T09:32:02;101578.25;;;34.06;30.19
63033;BME280;49121;38.932;-9.018;2022-07-23T09:34:11;101578.00;;;35.69;28.30
63033;BME280;49121;38.932;-9.018;2022-07-23T09:36:12;101575.03;;;35.62;27.93
63033;BME280;49121;38.932;-9.018;2022-07-23T09:38:14;101564.44;;;35.33;29.31
63033;BME280;49121;38.932;-9.018;2022-07-23T09:40:15;101561.66;;;35.59;29.13
63033;BME280;49121;38.932;-9.018;2022-07-23T09:42:25;101566.06;;;36.37;27.11
63033;BME280;49121;38.932;-9.018;2022-07-23T09:44:26;101575.88;;;34.67;29.69
63033;BME280;49121;38.932;-9.018;2022-07-23T09:49:29;101562.78;;;35.14;28.95
63033;BME280;49121;38.932;-9.018;2022-07-23T09:51:30;101574.75;;;34.24;30.41
63033;BME280;49121;38.932;-9.018;2022-07-23T09:53:37;101579.38;;;34.95;29.75
63033;BME280;49121;38.932;-9.018;2022-07-23T09:55:38;101573.22;;;34.11;30.50
63033;BME280;49121;38.932;-9.018;2022-07-23T09:57:40;101570.31;;;33.48;31.24
63033;BME280;49121;38.932;-9.018;2022-07-23T10:05:02;101577.88;;;34.47;29.94
63033;BME280;49121;38.932;-9.018;2022-07-23T10:07:22;101574.75;;;35.39;28.95
63033;BME280;49121;38.932;-9.018;2022-07-23T10:10:06;101589.38;;;35.82;28.14
63033;BME280;49121;38.932;-9.018;2022-07-23T10:12:32;101578.25;;;34.88;29.28
63033;BME280;49121;38.932;-9.018;2022-07-23T10:14:39;101572.41;;;34.47;30.26
63033;BME280;49121;38.932;-9.018;2022-07-23T10:16:42;101565.84;;;34.39;29.58
63033;BME280;49121;38.932;-9.018;2022-07-23T10:18:45;101570.19;;;35.04;29.19
63033;BME280;49121;38.932;-9.018;2022-07-23T10:20:48;101570.81;;;35.68;28.74
63033;BME280;49121;38.932;-9.018;2022-07-23T10:22:59;101575.63;;;35.14;28.77
63033;BME280;49121;38.932;-9.018;2022-07-23T10:36:46;101572.78;;;35.92;27.83
63033;BME280;49121;38.932;-9.018;2022-07-23T10:38:51;101578.16;;;36.77;26.22
63033;BME280;49121;38.932;-9.018;2022-07-23T10:40:58;101569.75;;;36.12;27.05
63033;BME280;49121;38.932;-9.018;2022-07-23T10:43:00;101562.16;;;36.56;26.43
63033;BME280;49121;38.932;-9.018;2022-07-23T10:45:33;101573.91;;;35.73;27.40
63033;BME280;49121;38.932;-9.018;2022-07-23T10:47:34;101572.25;;;35.54;27.36
63033;BME280;49121;38.932;-9.018;2022-07-23T10:57:53;101563.00;;;36.32;27.02
63033;BME280;49121;38.932;-9.018;2022-07-23T11:02:23;101570.84;;;35.16;27.97
63033;BME280;49121;38.932;-9.018;2022-07-23T11:04:50;101559.88;;;34.98;26.88
63033;BME280;49121;38.932;-9.018;2022-07-23T11:09:28;101552.47;;;33.16;35.92
63033;BME280;49121;38.932;-9.018;2022-07-23T11:11:47;101550.38;;;33.37;30.42
63033;BME280;49121;38.932;-9.018;2022-07-23T11:13:48;101541.44;;;32.88;29.24
63033;BME280;49121;38.932;-9.018;2022-07-23T11:18:11;101547.63;;;32.42;30.35
63033;BME280;49121;38.932;-9.018;2022-07-23T11:22:56;101540.56;;;32.29;32.09
63033;BME280;49121;38.932;-9.018;2022-07-23T11:24:57;101537.69;;;32.21;34.81
63033;BME280;49121;38.932;-9.018;2022-07-23T11:26:59;101533.66;;;32.15;33.79
63033;BME280;49121;38.932;-9.018;2022-07-23T11:31:37;101534.66;;;32.05;29.97
63033;BME280;49121;38.932;-9.018;2022-07-23T11:36:15;101541.44;;;32.49;36.20
63033;BME280;49121;38.932;-9.018;2022-07-23T11:38:22;101540.84;;;32.46;38.37
63033;BME280;49121;38.932;-9.018;2022-07-23T11:40:24;101530.22;;;32.13;38.96
63033;BME280;49121;38.932;-9.018;2022-07-23T11:45:12;101523.25;;;31.90;38.90
63033;BME280;49121;38.932;-9.018;2022-07-23T11:47:13;101524.91;;;32.02;39.52
63033;BME280;49121;38.932;-9.018;2022-07-23T11:49:14;101523.31;;;32.09;39.51
63033;BME280;49121;38.932;-9.018;2022-07-23T11:51:25;101526.50;;;32.24;39.55
63033;BME280;49121;38.932;-9.018;2022-07-23T11:53:33;101524.19;;;32.19;40.00
63033;BME280;49121;38.932;-9.018;2022-07-23T11:55:34;101516.53;;;31.84;40.04
63033;BME280;49121;38.932;-9.018;2022-07-23T11:57:54;101519.38;;;31.83;39.64
63033;BME280;49121;38.932;-9.018;2022-07-23T11:59:57;101511.75;;;31.76;40.68
63033;BME280;49121;38.932;-9.018;2022-07-23T12:02:00;101519.91;;;32.07;39.55
63033;BME280;49121;38.932;-9.018;2022-07-23T12:04:01;101519.22;;;32.25;38.91
63033;BME280;49121;38.932;-9.018;2022-07-23T12:06:01;101494.53;;;32.46;37.53
63033;BME280;49121;38.932;-9.018;2022-07-23T12:08:04;101510.63;;;32.68;37.24
63033;BME280;49121;38.932;-9.018;2022-07-23T12:10:21;101499.84;;;32.37;38.44
63033;BME280;49121;38.932;-9.018;2022-07-23T12:12:25;101499.06;;;31.96;39.41
63033;BME280;49121;38.932;-9.018;2022-07-23T12:14:26;101499.69;;;32.10;39.28